sensor_id;sensor_type;location;lat;lon;timestamp;P1;durP1;ratioP1;P2;durP2;ratioP2
60211;SDS011;46079;48.686;15.598;2023-02-15T00:00:00;7.82;;;3.55;;
60211;SDS011;46079;48.686;15.598;2023-02-15T00:02:26;8.23;;;3.70;;
60211;SDS011;46079;48.686;15.598;2023-02-15T00:04:52;7.93;;;3.38;;
60211;SDS011;46079;48.686;15.598;2023-02-15T00:07:18;8.45;;;3.97;;
60211;SDS011;46079;48.686;15.598;2023-02-15T00:09:45;7.95;;;3.63;;
60211;SDS011;46079;48.686;15.598;2023-02-15T00:12:11;7.47;;;3.63;;
60211;SDS011;46079;48.686;15.598;2023-02-15T00:14:36;7.85;;;3.60;;
60211;SDS011;46079;48.686;15.598;2023-02-15T00:17:02;8.40;;;3.83;;
60211;SDS011;46079;48.686;15.598;2023-02-15T00:19:27;7.78;;;3.60;;
60211;SDS011;46079;48.686;15.598;2023-02-15T00:21:53;8.63;;;3.60;;
60211;SDS011;46079;48.686;15.598;2023-02-15T00:24:19;7.95;;;3.65;;
60211;SDS011;46079;48.686;15.598;2023-02-15T00:26:45;8.43;;;3.50;;
60211;SDS011;46079;48.686;15.598;2023-02-15T00:29:12;8.45;;;3.60;;
60211;SDS011;46079;48.686;15.598;2023-02-15T00:31:39;8.48;;;3.65;;
60211;SDS011;46079;48.686;15.598;2023-02-15T00:36:41;8.40;;;4.18;;
60211;SDS011;46079;48.686;15.598;2023-02-15T00:39:07;8.35;;;3.85;;
60211;SDS011;46079;48.686;15.598;2023-02-15T00:41:34;8.65;;;3.47;;
60211;SDS011;46079;48.686;15.598;2023-02-15T00:43:59;7.97;;;3.90;;
60211;SDS011;46079;48.686;15.598;2023-02-15T00:46:25;7.82;;;3.72;;
60211;SDS011;46079;48.686;15.598;2023-02-15T00:48:50;8.23;;;3.70;;
60211;SDS011;46079;48.686;15.598;2023-02-15T00:51:16;8.45;;;3.90;;
60211;SDS011;46079;48.686;15.598;2023-02-15T00:53:42;8.23;;;3.72;;
60211;SDS011;46079;48.686;15.598;2023-02-15T00:56:09;7.90;;;3.42;;
60211;SDS011;46079;48.686;15.598;2023-02-15T00:58:35;8.23;;;3.50;;
60211;SDS011;46079;48.686;15.598;2023-02-15T01:01:05;8.52;;;3.72;;
60211;SDS011;46079;48.686;15.598;2023-02-15T01:03:32;8.60;;;3.80;;
60211;SDS011;46079;48.686;15.598;2023-02-15T01:05:58;8.18;;;3.42;;
60211;SDS011;46079;48.686;15.598;2023-02-15T01:08:24;7.60;;;3.42;;
60211;SDS011;46079;48.686;15.598;2023-02-15T01:10:50;7.88;;;3.63;;
60211;SDS011;46079;48.686;15.598;2023-02-15T01:13:16;7.95;;;3.53;;
60211;SDS011;46079;48.686;15.598;2023-02-15T01:15:42;8.50;;;3.47;;
60211;SDS011;46079;48.686;15.598;2023-02-15T01:18:09;8.00;;;3.60;;
60211;SDS011;46079;48.686;15.598;2023-02-15T01:20:36;7.88;;;3.55;;
60211;SDS011;46079;48.686;15.598;2023-02-15T01:23:04;7.95;;;3.70;;
60211;SDS011;46079;48.686;15.598;2023-02-15T01:25:30;7.90;;;3.30;;
60211;SDS011;46079;48.686;15.598;2023-02-15T01:27:57;7.53;;;3.50;;
60211;SDS011;46079;48.686;15.598;2023-02-15T01:30:23;8.35;;;3.75;;
60211;SDS011;46079;48.686;15.598;2023-02-15T01:32:48;7.65;;;3.67;;
60211;SDS011;46079;48.686;15.598;2023-02-15T01:35:13;7.85;;;3.63;;
60211;SDS011;46079;48.686;15.598;2023-02-15T01:37:39;7.95;;;3.60;;
60211;SDS011;46079;48.686;15.598;2023-02-15T01:40:05;7.97;;;3.55;;
60211;SDS011;46079;48.686;15.598;2023-02-15T01:42:33;7.50;;;3.40;;
60211;SDS011;46079;48.686;15.598;2023-02-15T01:45:19;8.63;;;3.90;;
60211;SDS011;46079;48.686;15.598;2023-02-15T01:47:52;8.05;;;3.80;;
60211;SDS011;46079;48.686;15.598;2023-02-15T01:53:07;8.40;;;3.75;;
60211;SDS011;46079;48.686;15.598;2023-02-15T01:55:46;8.63;;;3.70;;
60211;SDS011;46079;48.686;15.598;2023-02-15T01:58:16;8.15;;;3.72;;
60211;SDS011;46079;48.686;15.598;2023-02-15T02:00:43;7.97;;;3.65;;
60211;SDS011;46079;48.686;15.598;2023-02-15T02:03:09;7.97;;;3.63;;
60211;SDS011;46079;48.686;15.598;2023-02-15T02:05:35;8.48;;;3.33;;
60211;SDS011;46079;48.686;15.598;2023-02-15T02:08:01;9.10;;;3.72;;
60211;SDS011;46079;48.686;15.598;2023-02-15T02:10:27;8.43;;;3.85;;
60211;SDS011;46079;48.686;15.598;2023-02-15T02:12:58;7.70;;;3.50;;
60211;SDS011;46079;48.686;15.598;2023-02-15T02:21:13;10.98;;;3.47;;
60211;SDS011;46079;48.686;15.598;2023-02-15T02:34:29;7.95;;;3.60;;
60211;SDS011;46079;48.686;15.598;2023-02-15T02:39:35;8.02;;;3.65;;
60211;SDS011;46079;48.686;15.598;2023-02-15T02:44:47;7.22;;;3.35;;
60211;SDS011;46079;48.686;15.598;2023-02-15T02:47:22;7.82;;;3.40;;
60211;SDS011;46079;48.686;15.598;2023-02-15T02:50:02;8.52;;;3.72;;
60211;SDS011;46079;48.686;15.598;2023-02-15T02:52:34;7.78;;;3.55;;
60211;SDS011;46079;48.686;15.598;2023-02-15T02:55:01;8.30;;;3.60;;
60211;SDS011;46079;48.686;15.598;2023-02-15T02:57:28;7.68;;;3.38;;
60211;SDS011;46079;48.686;15.598;2023-02-15T02:59:56;7.45;;;3.40;;
60211;SDS011;46079;48.686;15.598;2023-02-15T03:02:26;8.63;;;3.63;;
60211;SDS011;46079;48.686;15.598;2023-02-15T03:07:29;8.68;;;3.90;;
60211;SDS011;46079;48.686;15.598;2023-02-15T03:10:00;8.40;;;3.75;;
60211;SDS011;46079;48.686;15.598;2023-02-15T03:12:28;8.10;;;3.70;;
60211;SDS011;46079;48.686;15.598;2023-02-15T03:15:01;8.05;;;3.60;;
60211;SDS011;46079;48.686;15.598;2023-02-15T03:17:35;7.75;;;3.42;;
60211;SDS011;46079;48.686;15.598;2023-02-15T03:20:07;8.65;;;3.83;;
60211;SDS011;46079;48.686;15.598;2023-02-15T03:22:37;7.90;;;3.65;;
60211;SDS011;46079;48.686;15.598;2023-02-15T03:25:15;8.02;;;3.65;;
60211;SDS011;46079;48.686;15.598;2023-02-15T03:27:47;7.63;;;3.42;;
60211;SDS011;46079;48.686;15.598;2023-02-15T03:30:34;7.93;;;3.53;;
60211;SDS011;46079;48.686;15.598;2023-02-15T03:33:01;8.60;;;3.75;;
60211;SDS011;46079;48.686;15.598;2023-02-15T03:35:33;8.18;;;3.30;;
60211;SDS011;46079;48.686;15.598;2023-02-15T03:38:05;7.85;;;3.50;;
60211;SDS011;46079;48.686;15.598;2023-02-15T03:40:37;8.10;;;3.58;;
60211;SDS011;46079;48.686;15.598;2023-02-15T03:46:00;7.97;;;3.55;;
60211;SDS011;46079;48.686;15.598;2023-02-15T03:48:35;7.47;;;3.53;;
60211;SDS011;46079;48.686;15.598;2023-02-15T03:51:05;7.60;;;3.50;;
60211;SDS011;46079;48.686;15.598;2023-02-15T03:53:54;7.75;;;3.47;;
60211;SDS011;46079;48.686;15.598;2023-02-15T03:56:21;8.43;;;3.80;;
60211;SDS011;46079;48.686;15.598;2023-02-15T03:58:47;7.90;;;3.45;;
60211;SDS011;46079;48.686;15.598;2023-02-15T04:01:38;7.95;;;3.60;;
60211;SDS011;46079;48.686;15.598;2023-02-15T04:04:28;7.53;;;3.33;;
60211;SDS011;46079;48.686;15.598;2023-02-15T04:07:13;7.80;;;3.35;;
60211;SDS011;46079;48.686;15.598;2023-02-15T04:09:39;7.63;;;3.28;;
60211;SDS011;46079;48.686;15.598;2023-02-15T04:12:23;7.70;;;3.40;;
60211;SDS011;46079;48.686;15.598;2023-02-15T04:14:48;8.23;;;3.50;;
60211;SDS011;46079;48.686;15.598;2023-02-15T04:17:33;7.63;;;3.42;;
60211;SDS011;46079;48.686;15.598;2023-02-15T04:20:00;7.63;;;3.13;;
60211;SDS011;46079;48.686;15.598;2023-02-15T04:22:44;7.40;;;3.30;;
60211;SDS011;46079;48.686;15.598;2023-02-15T04:25:28;7.53;;;3.33;;
60211;SDS011;46079;48.686;15.598;2023-02-15T04:27:54;8.13;;;3.50;;
60211;SDS011;46079;48.686;15.598;2023-02-15T04:30:20;7.65;;;3.05;;
60211;SDS011;46079;48.686;15.598;2023-02-15T04:32:57;7.80;;;3.80;;
60211;SDS011;46079;48.686;15.598;2023-02-15T04:35:23;8.10;;;3.35;;
60211;SDS011;46079;48.686;15.598;2023-02-15T04:37:57;7.90;;;3.50;;
60211;SDS011;46079;48.686;15.598;2023-02-15T04:40:23;8.57;;;3.72;;
60211;SDS011;46079;48.686;15.598;2023-02-15T04:42:51;7.63;;;3.28;;
60211;SDS011;46079;48.686;15.598;2023-02-15T04:45:17;7.95;;;3.65;;
60211;SDS011;46079;48.686;15.598;2023-02-15T04:47:43;7.50;;;3.40;;
60211;SDS011;46079;48.686;15.598;2023-02-15T04:50:08;7.85;;;3.40;;
60211;SDS011;46079;48.686;15.598;2023-02-15T04:52:34;7.55;;;3.38;;
60211;SDS011;46079;48.686;15.598;2023-02-15T04:54:59;8.02;;;3.20;;
60211;SDS011;46079;48.686;15.598;2023-02-15T04:57:25;7.90;;;3.55;;
60211;SDS011;46079;48.686;15.598;2023-02-15T04:59:50;8.02;;;3.50;;
60211;SDS011;46079;48.686;15.598;2023-02-15T05:02:16;8.30;;;3.70;;
60211;SDS011;46079;48.686;15.598;2023-02-15T05:04:41;7.80;;;3.33;;
60211;SDS011;46079;48.686;15.598;2023-02-15T05:07:06;7.60;;;3.22;;
60211;SDS011;46079;48.686;15.598;2023-02-15T05:09:32;7.45;;;3.40;;
60211;SDS011;46079;48.686;15.598;2023-02-15T05:11:57;7.70;;;3.22;;
60211;SDS011;46079;48.686;15.598;2023-02-15T05:14:23;8.02;;;3.50;;
60211;SDS011;46079;48.686;15.598;2023-02-15T05:16:48;7.85;;;3.28;;
60211;SDS011;46079;48.686;15.598;2023-02-15T05:19:14;7.38;;;3.30;;
60211;SDS011;46079;48.686;15.598;2023-02-15T05:21:39;7.93;;;3.20;;
60211;SDS011;46079;48.686;15.598;2023-02-15T05:24:05;8.38;;;3.67;;
60211;SDS011;46079;48.686;15.598;2023-02-15T05:26:50;8.13;;;3.30;;
60211;SDS011;46079;48.686;15.598;2023-02-15T05:29:34;7.97;;;3.55;;
60211;SDS011;46079;48.686;15.598;2023-02-15T05:31:59;8.02;;;3.35;;
60211;SDS011;46079;48.686;15.598;2023-02-15T05:34:25;8.18;;;3.40;;
60211;SDS011;46079;48.686;15.598;2023-02-15T05:36:50;7.53;;;3.30;;
60211;SDS011;46079;48.686;15.598;2023-02-15T05:39:16;7.70;;;3.47;;
60211;SDS011;46079;48.686;15.598;2023-02-15T05:41:41;7.97;;;3.42;;
60211;SDS011;46079;48.686;15.598;2023-02-15T05:44:06;7.85;;;3.50;;
60211;SDS011;46079;48.686;15.598;2023-02-15T05:46:32;8.15;;;3.50;;
60211;SDS011;46079;48.686;15.598;2023-02-15T05:48:57;13.82;;;7.18;;
60211;SDS011;46079;48.686;15.598;2023-02-15T05:51:23;22.70;;;11.00;;
60211;SDS011;46079;48.686;15.598;2023-02-15T05:53:48;26.48;;;14.15;;
60211;SDS011;46079;48.686;15.598;2023-02-15T05:56:13;23.65;;;12.43;;
60211;SDS011;46079;48.686;15.598;2023-02-15T05:58:39;20.67;;;10.57;;
60211;SDS011;46079;48.686;15.598;2023-02-15T06:01:16;19.50;;;9.40;;
60211;SDS011;46079;48.686;15.598;2023-02-15T06:03:44;17.05;;;7.95;;
60211;SDS011;46079;48.686;15.598;2023-02-15T06:06:10;16.63;;;7.53;;
60211;SDS011;46079;48.686;15.598;2023-02-15T06:08:36;13.85;;;6.22;;
60211;SDS011;46079;48.686;15.598;2023-02-15T06:11:02;12.65;;;6.00;;
60211;SDS011;46079;48.686;15.598;2023-02-15T06:13:28;13.60;;;6.43;;
60211;SDS011;46079;48.686;15.598;2023-02-15T06:15:54;12.70;;;5.47;;
60211;SDS011;46079;48.686;15.598;2023-02-15T06:18:19;12.02;;;5.80;;
60211;SDS011;46079;48.686;15.598;2023-02-15T06:20:45;11.10;;;5.05;;
60211;SDS011;46079;48.686;15.598;2023-02-15T06:23:11;11.32;;;5.15;;
60211;SDS011;46079;48.686;15.598;2023-02-15T06:25:37;11.15;;;4.97;;
60211;SDS011;46079;48.686;15.598;2023-02-15T06:28:03;12.75;;;5.05;;
60211;SDS011;46079;48.686;15.598;2023-02-15T06:30:28;10.93;;;4.88;;
60211;SDS011;46079;48.686;15.598;2023-02-15T06:32:54;11.35;;;5.07;;
60211;SDS011;46079;48.686;15.598;2023-02-15T06:35:19;10.65;;;5.22;;
60211;SDS011;46079;48.686;15.598;2023-02-15T06:37:45;11.52;;;4.97;;
60211;SDS011;46079;48.686;15.598;2023-02-15T06:40:11;12.63;;;4.97;;
60211;SDS011;46079;48.686;15.598;2023-02-15T06:42:36;10.30;;;4.65;;
60211;SDS011;46079;48.686;15.598;2023-02-15T06:45:02;10.52;;;4.93;;
60211;SDS011;46079;48.686;15.598;2023-02-15T06:47:28;12.20;;;5.10;;
60211;SDS011;46079;48.686;15.598;2023-02-15T06:49:53;11.45;;;4.68;;
60211;SDS011;46079;48.686;15.598;2023-02-15T06:52:19;10.88;;;4.82;;
60211;SDS011;46079;48.686;15.598;2023-02-15T06:54:44;10.27;;;4.93;;
60211;SDS011;46079;48.686;15.598;2023-02-15T06:57:10;10.60;;;4.93;;
60211;SDS011;46079;48.686;15.598;2023-02-15T06:59:35;11.68;;;4.57;;
60211;SDS011;46079;48.686;15.598;2023-02-15T07:02:00;9.43;;;4.15;;
60211;SDS011;46079;48.686;15.598;2023-02-15T07:04:26;10.55;;;4.57;;
60211;SDS011;46079;48.686;15.598;2023-02-15T07:06:53;10.48;;;4.65;;
60211;SDS011;46079;48.686;15.598;2023-02-15T07:09:19;11.32;;;4.53;;
60211;SDS011;46079;48.686;15.598;2023-02-15T07:11:44;10.05;;;4.45;;
60211;SDS011;46079;48.686;15.598;2023-02-15T07:14:28;10.52;;;4.50;;
60211;SDS011;46079;48.686;15.598;2023-02-15T07:16:54;11.68;;;4.90;;
60211;SDS011;46079;48.686;15.598;2023-02-15T07:19:19;10.73;;;4.95;;
60211;SDS011;46079;48.686;15.598;2023-02-15T07:21:45;10.48;;;4.97;;
60211;SDS011;46079;48.686;15.598;2023-02-15T07:24:10;11.07;;;4.57;;
60211;SDS011;46079;48.686;15.598;2023-02-15T07:26:36;10.23;;;4.38;;
60211;SDS011;46079;48.686;15.598;2023-02-15T07:29:01;11.50;;;4.75;;
60211;SDS011;46079;48.686;15.598;2023-02-15T07:31:26;10.40;;;4.80;;
60211;SDS011;46079;48.686;15.598;2023-02-15T07:33:52;9.70;;;4.15;;
60211;SDS011;46079;48.686;15.598;2023-02-15T07:36:17;10.88;;;4.57;;
60211;SDS011;46079;48.686;15.598;2023-02-15T07:38:43;9.27;;;4.28;;
60211;SDS011;46079;48.686;15.598;2023-02-15T07:41:10;10.82;;;4.50;;
60211;SDS011;46079;48.686;15.598;2023-02-15T07:43:38;10.10;;;4.60;;
60211;SDS011;46079;48.686;15.598;2023-02-15T07:46:07;10.90;;;4.70;;
60211;SDS011;46079;48.686;15.598;2023-02-15T07:48:35;10.18;;;4.45;;
60211;SDS011;46079;48.686;15.598;2023-02-15T07:51:02;10.23;;;4.38;;
60211;SDS011;46079;48.686;15.598;2023-02-15T07:53:29;11.57;;;4.88;;
60211;SDS011;46079;48.686;15.598;2023-02-15T07:56:14;9.75;;;4.30;;
60211;SDS011;46079;48.686;15.598;2023-02-15T07:58:40;9.88;;;4.45;;
60211;SDS011;46079;48.686;15.598;2023-02-15T08:01:22;9.95;;;4.50;;
60211;SDS011;46079;48.686;15.598;2023-02-15T08:03:47;9.32;;;4.43;;
60211;SDS011;46079;48.686;15.598;2023-02-15T08:06:13;9.27;;;4.28;;
60211;SDS011;46079;48.686;15.598;2023-02-15T08:08:39;9.88;;;4.55;;
60211;SDS011;46079;48.686;15.598;2023-02-15T08:13:57;9.90;;;4.65;;
60211;SDS011;46079;48.686;15.598;2023-02-15T08:21:57;10.30;;;4.47;;
60211;SDS011;46079;48.686;15.598;2023-02-15T08:24:26;11.13;;;5.05;;
60211;SDS011;46079;48.686;15.598;2023-02-15T08:26:53;9.73;;;4.30;;
60211;SDS011;46079;48.686;15.598;2023-02-15T08:29:20;9.98;;;4.57;;
60211;SDS011;46079;48.686;15.598;2023-02-15T08:31:47;9.80;;;4.80;;
60211;SDS011;46079;48.686;15.598;2023-02-15T08:34:15;9.75;;;4.57;;
60211;SDS011;46079;48.686;15.598;2023-02-15T08:36:42;9.98;;;4.63;;
60211;SDS011;46079;48.686;15.598;2023-02-15T08:39:10;9.35;;;4.18;;
60211;SDS011;46079;48.686;15.598;2023-02-15T08:41:37;10.20;;;4.60;;
60211;SDS011;46079;48.686;15.598;2023-02-15T08:44:04;9.98;;;4.57;;
60211;SDS011;46079;48.686;15.598;2023-02-15T08:46:35;10.20;;;4.63;;
60211;SDS011;46079;48.686;15.598;2023-02-15T08:49:03;9.90;;;4.45;;
60211;SDS011;46079;48.686;15.598;2023-02-15T08:51:29;8.93;;;4.00;;
60211;SDS011;46079;48.686;15.598;2023-02-15T08:53:57;9.50;;;4.35;;
60211;SDS011;46079;48.686;15.598;2023-02-15T08:56:26;9.60;;;4.15;;
60211;SDS011;46079;48.686;15.598;2023-02-15T08:59:02;9.45;;;4.25;;
60211;SDS011;46079;48.686;15.598;2023-02-15T09:01:30;11.15;;;4.50;;
60211;SDS011;46079;48.686;15.598;2023-02-15T09:03:58;10.95;;;4.82;;
60211;SDS011;46079;48.686;15.598;2023-02-15T09:06:29;9.40;;;4.30;;
60211;SDS011;46079;48.686;15.598;2023-02-15T09:08:55;14.02;;;4.38;;
60211;SDS011;46079;48.686;15.598;2023-02-15T09:11:24;9.63;;;4.45;;
60211;SDS011;46079;48.686;15.598;2023-02-15T09:13:53;10.10;;;4.60;;
60211;SDS011;46079;48.686;15.598;2023-02-15T09:16:21;13.98;;;5.60;;
60211;SDS011;46079;48.686;15.598;2023-02-15T09:18:48;16.90;;;5.63;;
60211;SDS011;46079;48.686;15.598;2023-02-15T09:21:18;15.07;;;5.55;;
60211;SDS011;46079;48.686;15.598;2023-02-15T09:26:13;13.73;;;5.22;;
60211;SDS011;46079;48.686;15.598;2023-02-15T09:28:40;13.80;;;5.00;;
60211;SDS011;46079;48.686;15.598;2023-02-15T09:31:08;14.80;;;5.63;;
60211;SDS011;46079;48.686;15.598;2023-02-15T09:33:35;16.10;;;5.45;;
60211;SDS011;46079;48.686;15.598;2023-02-15T09:36:02;13.90;;;5.22;;
60211;SDS011;46079;48.686;15.598;2023-02-15T09:38:28;12.75;;;5.60;;
60211;SDS011;46079;48.686;15.598;2023-02-15T09:40:58;12.90;;;4.80;;
60211;SDS011;46079;48.686;15.598;2023-02-15T09:49:20;14.30;;;5.35;;
60211;SDS011;46079;48.686;15.598;2023-02-15T09:51:52;11.55;;;4.72;;
60211;SDS011;46079;48.686;15.598;2023-02-15T09:54:41;11.75;;;5.25;;
60211;SDS011;46079;48.686;15.598;2023-02-15T09:57:11;14.68;;;5.32;;
60211;SDS011;46079;48.686;15.598;2023-02-15T10:02:31;13.55;;;5.72;;
60211;SDS011;46079;48.686;15.598;2023-02-15T10:13:19;13.10;;;5.18;;
60211;SDS011;46079;48.686;15.598;2023-02-15T10:21:30;12.00;;;4.80;;
60211;SDS011;46079;48.686;15.598;2023-02-15T10:26:53;12.13;;;5.43;;
60211;SDS011;46079;48.686;15.598;2023-02-15T10:29:27;12.18;;;5.05;;
60211;SDS011;46079;48.686;15.598;2023-02-15T10:32:05;14.02;;;4.97;;
60211;SDS011;46079;48.686;15.598;2023-02-15T10:50:59;12.10;;;4.50;;
60211;SDS011;46079;48.686;15.598;2023-02-15T11:04:36;10.65;;;5.10;;
60211;SDS011;46079;48.686;15.598;2023-02-15T11:07:12;11.93;;;4.93;;
60211;SDS011;46079;48.686;15.598;2023-02-15T11:09:44;11.07;;;4.45;;
60211;SDS011;46079;48.686;15.598;2023-02-15T11:17:43;14.03;;;4.80;;
60211;SDS011;46079;48.686;15.598;2023-02-15T11:23:19;11.93;;;4.80;;
60211;SDS011;46079;48.686;15.598;2023-02-15T11:25:47;12.82;;;4.50;;
60211;SDS011;46079;48.686;15.598;2023-02-15T11:28:24;11.77;;;5.00;;
60211;SDS011;46079;48.686;15.598;2023-02-15T11:30:56;10.75;;;4.82;;
60211;SDS011;46079;48.686;15.598;2023-02-15T11:33:27;11.35;;;5.20;;
60211;SDS011;46079;48.686;15.598;2023-02-15T11:36:03;11.55;;;4.88;;
60211;SDS011;46079;48.686;15.598;2023-02-15T11:38:34;10.90;;;4.80;;
60211;SDS011;46079;48.686;15.598;2023-02-15T11:41:07;11.98;;;5.05;;
60211;SDS011;46079;48.686;15.598;2023-02-15T11:46:19;11.35;;;5.15;;
60211;SDS011;46079;48.686;15.598;2023-02-15T11:48:49;11.23;;;4.90;;
60211;SDS011;46079;48.686;15.598;2023-02-15T11:51:15;12.75;;;5.28;;
60211;SDS011;46079;48.686;15.598;2023-02-15T11:53:44;11.65;;;4.88;;
60211;SDS011;46079;48.686;15.598;2023-02-15T11:56:21;11.18;;;4.88;;
60211;SDS011;46079;48.686;15.598;2023-02-15T11:58:58;11.75;;;4.82;;
60211;SDS011;46079;48.686;15.598;2023-02-15T12:01:30;12.10;;;5.00;;
60211;SDS011;46079;48.686;15.598;2023-02-15T12:03:59;13.32;;;4.88;;
60211;SDS011;46079;48.686;15.598;2023-02-15T12:06:32;11.05;;;4.93;;
60211;SDS011;46079;48.686;15.598;2023-02-15T12:09:05;10.65;;;4.63;;
60211;SDS011;46079;48.686;15.598;2023-02-15T12:11:41;11.25;;;4.55;;
60211;SDS011;46079;48.686;15.598;2023-02-15T12:14:08;10.57;;;4.50;;
60211;SDS011;46079;48.686;15.598;2023-02-15T12:16:45;11.13;;;5.15;;
60211;SDS011;46079;48.686;15.598;2023-02-15T12:19:24;10.73;;;4.63;;
60211;SDS011;46079;48.686;15.598;2023-02-15T12:21:55;11.82;;;5.32;;
60211;SDS011;46079;48.686;15.598;2023-02-15T12:24:24;11.25;;;4.90;;
60211;SDS011;46079;48.686;15.598;2023-02-15T12:27:01;11.25;;;4.82;;
60211;SDS011;46079;48.686;15.598;2023-02-15T12:29:30;10.43;;;4.68;;
60211;SDS011;46079;48.686;15.598;2023-02-15T12:32:04;12.38;;;4.65;;
60211;SDS011;46079;48.686;15.598;2023-02-15T12:34:36;12.05;;;5.22;;
60211;SDS011;46079;48.686;15.598;2023-02-15T12:37:14;10.48;;;4.82;;
60211;SDS011;46079;48.686;15.598;2023-02-15T12:39:57;11.30;;;5.43;;
60211;SDS011;46079;48.686;15.598;2023-02-15T12:42:24;11.23;;;4.95;;
60211;SDS011;46079;48.686;15.598;2023-02-15T12:47:21;11.30;;;5.38;;
60211;SDS011;46079;48.686;15.598;2023-02-15T12:50:08;12.52;;;5.57;;
60211;SDS011;46079;48.686;15.598;2023-02-15T12:52:43;14.30;;;6.13;;
60211;SDS011;46079;48.686;15.598;2023-02-15T12:55:26;11.30;;;4.90;;
60211;SDS011;46079;48.686;15.598;2023-02-15T13:00:43;12.15;;;5.07;;
60211;SDS011;46079;48.686;15.598;2023-02-15T13:03:16;12.90;;;5.43;;
60211;SDS011;46079;48.686;15.598;2023-02-15T13:05:47;11.57;;;5.70;;
60211;SDS011;46079;48.686;15.598;2023-02-15T13:10:56;11.98;;;5.55;;
60211;SDS011;46079;48.686;15.598;2023-02-15T13:13:26;11.63;;;5.45;;
60211;SDS011;46079;48.686;15.598;2023-02-15T13:15:56;12.63;;;5.50;;
60211;SDS011;46079;48.686;15.598;2023-02-15T13:18:31;13.30;;;6.13;;
60211;SDS011;46079;48.686;15.598;2023-02-15T13:21:04;13.95;;;5.82;;
60211;SDS011;46079;48.686;15.598;2023-02-15T13:23:36;11.27;;;5.60;;
60211;SDS011;46079;48.686;15.598;2023-02-15T13:26:04;11.25;;;5.53;;
60211;SDS011;46079;48.686;15.598;2023-02-15T13:28:40;12.10;;;5.53;;
60211;SDS011;46079;48.686;15.598;2023-02-15T13:31:14;11.57;;;5.68;;
60211;SDS011;46079;48.686;15.598;2023-02-15T13:33:44;11.93;;;6.07;;
60211;SDS011;46079;48.686;15.598;2023-02-15T13:39:05;11.07;;;5.35;;
60211;SDS011;46079;48.686;15.598;2023-02-15T13:41:46;11.85;;;5.50;;
60211;SDS011;46079;48.686;15.598;2023-02-15T13:49:59;12.43;;;5.30;;
60211;SDS011;46079;48.686;15.598;2023-02-15T13:52:46;13.13;;;5.82;;
60211;SDS011;46079;48.686;15.598;2023-02-15T14:03:43;11.07;;;5.20;;
60211;SDS011;46079;48.686;15.598;2023-02-15T14:11:21;12.25;;;5.75;;
60211;SDS011;46079;48.686;15.598;2023-02-15T14:13:58;12.57;;;6.10;;
60211;SDS011;46079;48.686;15.598;2023-02-15T14:19:52;17.10;;;6.35;;
60211;SDS011;46079;48.686;15.598;2023-02-15T14:25:03;13.57;;;5.55;;
60211;SDS011;46079;48.686;15.598;2023-02-15T14:27:54;12.52;;;6.07;;
60211;SDS011;46079;48.686;15.598;2023-02-15T14:30:41;14.30;;;5.90;;
60211;SDS011;46079;48.686;15.598;2023-02-15T14:35:40;15.70;;;5.65;;
60211;SDS011;46079;48.686;15.598;2023-02-15T14:40:57;14.43;;;6.20;;
60211;SDS011;46079;48.686;15.598;2023-02-15T14:48:54;17.58;;;6.68;;
60211;SDS011;46079;48.686;15.598;2023-02-15T14:54:08;15.95;;;6.00;;
60211;SDS011;46079;48.686;15.598;2023-02-15T14:56:35;14.27;;;6.20;;
60211;SDS011;46079;48.686;15.598;2023-02-15T15:01:55;13.20;;;5.78;;
60211;SDS011;46079;48.686;15.598;2023-02-15T15:09:42;15.27;;;6.07;;
60211;SDS011;46079;48.686;15.598;2023-02-15T15:12:14;13.10;;;5.68;;
60211;SDS011;46079;48.686;15.598;2023-02-15T15:14:43;14.93;;;6.15;;
60211;SDS011;46079;48.686;15.598;2023-02-15T15:19:59;13.35;;;5.97;;
60211;SDS011;46079;48.686;15.598;2023-02-15T15:22:34;12.85;;;5.88;;
60211;SDS011;46079;48.686;15.598;2023-02-15T15:25:07;12.30;;;5.18;;
60211;SDS011;46079;48.686;15.598;2023-02-15T15:27:53;13.93;;;5.80;;
60211;SDS011;46079;48.686;15.598;2023-02-15T15:43:34;12.82;;;5.43;;
60211;SDS011;46079;48.686;15.598;2023-02-15T15:48:47;12.88;;;6.05;;
60211;SDS011;46079;48.686;15.598;2023-02-15T15:51:14;12.77;;;5.57;;
60211;SDS011;46079;48.686;15.598;2023-02-15T15:53:46;13.82;;;5.95;;
60211;SDS011;46079;48.686;15.598;2023-02-15T15:56:20;13.48;;;5.45;;
60211;SDS011;46079;48.686;15.598;2023-02-15T15:59:00;12.35;;;5.57;;
60211;SDS011;46079;48.686;15.598;2023-02-15T16:01:30;14.68;;;5.82;;
60211;SDS011;46079;48.686;15.598;2023-02-15T16:04:03;12.52;;;5.88;;
60211;SDS011;46079;48.686;15.598;2023-02-15T16:06:36;12.70;;;5.25;;
60211;SDS011;46079;48.686;15.598;2023-02-15T16:09:10;13.95;;;6.28;;
60211;SDS011;46079;48.686;15.598;2023-02-15T16:11:38;12.85;;;6.07;;
60211;SDS011;46079;48.686;15.598;2023-02-15T16:14:12;14.45;;;5.90;;
60211;SDS011;46079;48.686;15.598;2023-02-15T16:16:48;14.23;;;5.75;;
60211;SDS011;46079;48.686;15.598;2023-02-15T16:19:23;12.77;;;5.63;;
60211;SDS011;46079;48.686;15.598;2023-02-15T16:21:52;16.75;;;5.60;;
60211;SDS011;46079;48.686;15.598;2023-02-15T16:24:27;12.32;;;5.35;;
60211;SDS011;46079;48.686;15.598;2023-02-15T16:29:50;12.40;;;5.75;;
60211;SDS011;46079;48.686;15.598;2023-02-15T16:32:17;12.48;;;5.13;;
60211;SDS011;46079;48.686;15.598;2023-02-15T16:37:22;12.93;;;5.20;;
60211;SDS011;46079;48.686;15.598;2023-02-15T16:39:52;12.57;;;5.40;;
60211;SDS011;46079;48.686;15.598;2023-02-15T16:42:20;12.93;;;5.20;;
60211;SDS011;46079;48.686;15.598;2023-02-15T16:44:48;13.75;;;5.70;;
60211;SDS011;46079;48.686;15.598;2023-02-15T16:47:37;13.25;;;5.57;;
60211;SDS011;46079;48.686;15.598;2023-02-15T16:50:16;13.10;;;5.82;;
60211;SDS011;46079;48.686;15.598;2023-02-15T16:52:43;11.68;;;5.40;;
60211;SDS011;46079;48.686;15.598;2023-02-15T16:55:20;11.43;;;4.97;;
60211;SDS011;46079;48.686;15.598;2023-02-15T16:57:47;12.60;;;5.72;;
60211;SDS011;46079;48.686;15.598;2023-02-15T17:00:24;13.18;;;5.55;;
60211;SDS011;46079;48.686;15.598;2023-02-15T17:03:00;12.07;;;5.35;;
60211;SDS011;46079;48.686;15.598;2023-02-15T17:05:47;12.23;;;5.38;;
60211;SDS011;46079;48.686;15.598;2023-02-15T17:13:24;13.45;;;5.55;;
60211;SDS011;46079;48.686;15.598;2023-02-15T17:18:46;11.13;;;5.05;;
60211;SDS011;46079;48.686;15.598;2023-02-15T17:21:12;11.65;;;5.75;;
60211;SDS011;46079;48.686;15.598;2023-02-15T17:23:43;13.43;;;5.70;;
60211;SDS011;46079;48.686;15.598;2023-02-15T17:26:12;11.63;;;5.53;;
60211;SDS011;46079;48.686;15.598;2023-02-15T17:29:28;13.02;;;5.50;;
60211;SDS011;46079;48.686;15.598;2023-02-15T17:31:42;11.98;;;5.10;;
60211;SDS011;46079;48.686;15.598;2023-02-15T17:34:40;11.75;;;5.47;;
60211;SDS011;46079;48.686;15.598;2023-02-15T17:37:09;11.77;;;5.45;;
60211;SDS011;46079;48.686;15.598;2023-02-15T17:39:37;11.68;;;5.20;;
60211;SDS011;46079;48.686;15.598;2023-02-15T17:42:02;11.52;;;5.03;;
60211;SDS011;46079;48.686;15.598;2023-02-15T17:44:28;11.00;;;4.90;;
60211;SDS011;46079;48.686;15.598;2023-02-15T17:46:53;12.68;;;5.80;;
60211;SDS011;46079;48.686;15.598;2023-02-15T17:49:28;11.77;;;5.50;;
60211;SDS011;46079;48.686;15.598;2023-02-15T17:51:58;10.63;;;5.10;;
60211;SDS011;46079;48.686;15.598;2023-02-15T17:54:25;10.90;;;4.90;;
60211;SDS011;46079;48.686;15.598;2023-02-15T17:57:13;10.70;;;4.88;;
60211;SDS011;46079;48.686;15.598;2023-02-15T17:59:40;11.32;;;5.32;;